Time;durP1;ratioP1;P1;durP2;ratioP2;P2;SDS_P1;SDS_P2;PMS_P1;PMS_P2;Temp;Humidity;BMP_temperature;BMP_pressure;BME280_temperature;BME280_humidity;BME280_pressure;Samples;Min_cycle;Max_cycle;Signal;HPM_P1;HPM_P2
2023/03/25 00:01:32;;;;;;;6.22;0.80;;;7.50;99.90;;;6.80;100.00;96944.81;5040697;28;20048;-74
2023/03/25 00:04:03;;;;;;;6.30;0.70;;;7.50;99.90;;;6.85;100.00;96954.03;5062189;28;20090;-74
2023/03/25 00:06:34;;;;;;;6.72;0.85;;;7.50;99.90;;;6.86;100.00;96963.44;5059146;28;20120;-74
2023/03/25 00:09:03;;;;;;;5.28;1.15;;;7.50;99.90;;;6.83;100.00;96965.31;5056817;28;20041;-74
2023/03/25 00:11:30;;;;;;;5.10;0.80;;;7.50;99.90;;;6.94;100.00;96973.50;5046941;28;20056;-74
2023/03/25 00:13:57;;;;;;;7.15;0.82;;;7.50;99.90;;;6.88;100.00;96969.41;5057280;28;20139;-74
2023/03/25 00:16:24;;;;;;;2.33;0.57;;;7.50;99.90;;;6.98;100.00;96969.06;5044534;28;20132;-75
2023/03/25 00:18:51;;;;;;;9.18;0.80;;;7.60;99.90;;;6.95;100.00;96962.28;5045133;28;20037;-74
2023/03/25 00:21:18;;;;;;;6.13;1.02;;;7.70;99.90;;;6.94;100.00;96957.19;5045084;28;20041;-73
2023/03/25 00:23:45;;;;;;;5.45;0.80;;;7.70;99.90;;;7.00;100.00;96955.22;5060270;28;20137;-74
2023/03/25 00:26:12;;;;;;;10.18;1.08;;;7.70;99.90;;;6.97;100.00;96939.84;5046221;28;20091;-74
2023/03/25 00:28:39;;;;;;;7.32;1.05;;;7.70;99.90;;;6.99;100.00;96934.63;5046088;28;20760;-75
2023/03/25 00:31:13;;;;;;;7.13;1.08;;;7.80;99.90;;;7.07;100.00;96956.66;5041821;28;20045;-74
2023/03/25 00:33:40;;;;;;;7.22;0.90;;;7.70;99.90;;;6.99;100.00;96957.84;5045470;28;20049;-74
2023/03/25 00:36:12;;;;;;;5.45;1.00;;;7.70;99.90;;;6.96;100.00;96958.81;5043213;28;20495;-74
2023/03/25 00:38:41;;;;;;;7.80;0.80;;;7.70;99.90;;;6.97;100.00;96969.97;5044351;28;20091;-74
2023/03/25 00:41:21;;;;;;;7.68;1.20;;;7.60;99.90;;;6.95;100.00;96958.84;5041998;28;20041;-74
2023/03/25 00:43:51;;;;;;;4.75;0.73;;;7.60;99.90;;;6.90;100.00;96951.28;5057405;28;20110;-74
2023/03/25 00:46:19;;;;;;;10.32;0.80;;;7.60;99.90;;;6.89;100.00;96962.53;5030950;28;20055;-73
2023/03/25 00:48:46;;;;;;;7.60;1.20;;;7.50;99.90;;;6.75;100.00;96968.19;5043695;28;20080;-73
2023/03/25 00:51:20;;;;;;;6.35;0.90;;;7.50;99.90;;;6.65;100.00;96983.16;5044548;28;21476;-73
2023/03/25 00:53:59;;;;;;;3.78;0.60;;;7.40;99.90;;;6.52;100.00;96987.06;5039376;28;20128;-73
2023/03/25 00:56:27;;;;;;;9.20;0.70;;;7.30;99.90;;;6.42;100.00;96972.84;5054748;28;20526;-73
2023/03/25 00:58:55;;;;;;;4.75;0.77;;;7.30;99.90;;;6.36;100.00;97012.53;5060658;28;20132;-73
2023/03/25 01:01:26;;;;;;;2.08;0.55;;;7.10;99.90;;;6.22;100.00;96984.66;5042961;28;20044;-72
2023/03/25 01:03:59;;;;;;;2.50;0.55;;;7.00;99.90;;;6.10;100.00;96979.94;5056733;28;20137;-73
2023/03/25 01:06:33;;;;;;;2.38;0.50;;;6.90;99.90;;;6.09;100.00;97022.09;5044746;28;20050;-72
2023/03/25 01:09:04;;;;;;;3.17;0.50;;;6.80;99.90;;;6.01;100.00;97017.16;5040517;28;20502;-73
2023/03/25 01:11:37;;;;;;;4.22;0.60;;;6.70;99.90;;;5.91;100.00;97000.31;5043434;28;20052;-72
2023/03/25 01:14:08;;;;;;;3.45;0.55;;;6.60;99.90;;;5.95;100.00;96965.00;5043445;28;20047;-72
2023/03/25 01:16:35;;;;;;;5.22;0.40;;;6.60;99.90;;;5.86;100.00;96954.13;5044990;28;20049;-72
2023/03/25 01:19:02;;;;;;;2.63;0.50;;;6.50;99.90;;;5.92;100.00;96955.63;5046319;28;20045;-73
2023/03/25 01:21:33;;;;;;;1.77;0.50;;;6.50;99.90;;;5.85;100.00;96970.44;5042391;28;20109;-73
2023/03/25 01:24:05;;;;;;;6.63;0.90;;;6.50;99.90;;;5.80;100.00;96964.59;5045474;28;20123;-72
2023/03/25 01:26:32;;;;;;;3.00;0.50;;;6.50;99.90;;;5.70;100.00;96952.91;5044963;28;20115;-72
2023/03/25 01:28:59;;;;;;;2.53;0.50;;;6.40;99.90;;;5.70;100.00;96958.06;5054958;28;20081;-72
2023/03/25 01:31:28;;;;;;;4.18;0.82;;;6.30;99.90;;;5.58;100.00;96956.75;5043188;28;20049;-73
2023/03/25 01:33:57;;;;;;;3.42;0.60;;;6.30;99.90;;;5.52;100.00;96954.38;5044948;28;20136;-73
2023/03/25 01:36:28;;;;;;;1.92;0.40;;;6.20;99.90;;;5.44;100.00;96956.34;5039654;28;20046;-73
2023/03/25 01:38:57;;;;;;;3.28;0.40;;;6.20;99.90;;;5.45;100.00;96946.03;5033264;28;20578;-73
2023/03/25 01:41:27;;;;;;;2.55;0.40;;;6.10;99.90;;;5.38;100.00;96965.13;5060327;28;20518;-73
2023/03/25 01:44:18;;;;;;;1.80;0.40;;;6.10;99.90;;;5.33;100.00;96972.13;5043925;28;20045;-72
2023/03/25 01:46:47;;;;;;;2.50;0.40;;;6.10;99.90;;;5.33;100.00;96959.25;5043218;28;20052;-73
2023/03/25 01:49:32;;;;;;;1.98;0.57;;;6.10;99.90;;;5.38;100.00;96952.25;5043277;28;20132;-73
2023/03/25 01:52:21;;;;;;;4.97;0.40;;;6.00;99.90;;;5.35;100.00;96957.47;5028147;28;20091;-73
2023/03/25 01:54:51;;;;;;;2.15;0.60;;;6.00;99.90;;;5.33;100.00;96948.97;5056599;28;20048;-73
2023/03/25 01:57:21;;;;;;;2.55;0.55;;;6.00;99.90;;;5.40;100.00;96970.22;5055815;28;20144;-73
2023/03/25 01:59:50;;;;;;;2.17;0.50;;;6.10;99.90;;;5.47;100.00;96957.97;5042524;28;20192;-74
2023/03/25 02:02:19;;;;;;;3.08;0.50;;;6.10;99.90;;;5.53;100.00;96978.38;5040410;28;20135;-74
2023/03/25 02:04:57;;;;;;;2.60;0.40;;;6.20;99.90;;;5.58;100.00;96966.19;5042020;28;20056;-73
2023/03/25 02:07:34;;;;;;;4.47;0.55;;;6.30;99.90;;;5.59;100.00;96960.19;5046542;28;20079;-73
2023/03/25 02:10:06;;;;;;;5.45;0.68;;;6.30;99.90;;;5.66;100.00;96971.97;5026469;28;20049;-74
2023/03/25 02:12:33;;;;;;;3.05;0.60;;;6.30;99.90;;;5.70;100.00;96972.69;5046000;28;20498;-74
2023/03/25 02:15:04;;;;;;;2.08;0.50;;;6.30;99.90;;;5.74;100.00;96966.53;5058433;28;20045;-73
2023/03/25 02:18:25;;;;;;;4.50;0.50;;;6.30;99.90;;;5.72;100.00;96958.84;5042726;28;20065;-74
2023/03/25 02:21:07;;;;;;;4.68;0.80;;;6.30;99.90;;;5.70;100.00;96960.63;5029742;28;20056;-73
2023/03/25 02:24:22;;;;;;;3.08;0.68;;;6.40;99.90;;;5.69;100.00;96951.25;5044977;28;20625;-73
2023/03/25 02:27:12;;;;;;;1.33;0.60;;;6.50;99.90;;;5.77;100.00;96948.41;4988154;28;20137;-74
2023/03/25 02:30:08;;;;;;;2.35;0.70;;;6.40;99.90;;;5.79;100.00;96962.06;4973242;28;20058;-74
2023/03/25 02:33:15;;;;;;;3.75;0.70;;;6.50;99.90;;;5.77;100.00;96972.44;5032466;28;20053;-73
2023/03/25 02:36:40;;;;;;;3.33;0.60;;;6.40;99.90;;;5.90;100.00;96972.03;5046646;28;20800;-74
2023/03/25 02:39:21;;;;;;;7.28;0.90;;;6.40;99.90;;;5.74;100.00;96957.06;5060365;28;20045;-74
2023/03/25 02:42:15;;;;;;;4.57;1.45;;;6.40;99.90;;;5.87;100.00;96960.94;5050151;28;20045;-73
2023/03/25 02:44:59;;;;;;;4.50;0.60;;;6.40;99.90;;;5.79;100.00;96956.94;5049396;28;20136;-74
2023/03/25 02:47:34;;;;;;;4.53;0.80;;;6.40;99.90;;;5.80;100.00;96954.31;5046827;28;20069;-74
2023/03/25 02:50:09;;;;;;;6.65;1.00;;;6.50;99.90;;;5.76;100.00;96950.16;5042929;28;20048;-73
2023/03/25 02:52:59;;;;;;;2.88;0.70;;;6.40;99.90;;;5.74;100.00;96939.06;5043799;28;20052;-74
2023/03/25 02:55:32;;;;;;;2.13;0.70;;;6.40;99.90;;;5.69;100.00;96948.66;5061091;28;20081;-74
2023/03/25 02:58:04;;;;;;;7.18;0.85;;;6.40;99.90;;;5.64;100.00;96933.38;5048741;28;20052;-74
2023/03/25 03:00:31;;;;;;;7.05;1.20;;;6.50;99.90;;;5.72;100.00;96935.69;5063844;28;20053;-74
2023/03/25 03:03:02;;;;;;;2.40;0.77;;;6.40;99.90;;;5.73;100.00;96934.81;5028693;28;20045;-74
2023/03/25 03:05:42;;;;;;;3.58;0.70;;;6.30;99.90;;;5.76;100.00;96926.97;5046051;28;20060;-74
2023/03/25 03:08:37;;;;;;;3.13;0.70;;;6.30;99.90;;;5.74;100.00;96936.47;5049017;28;20053;-74
2023/03/25 03:11:22;;;;;;;3.20;0.70;;;6.30;99.90;;;5.73;100.00;96900.50;5046279;28;20049;-73
2023/03/25 03:14:24;;;;;;;3.78;0.70;;;6.30;99.90;;;5.69;100.00;96922.91;5054651;28;20060;-74
2023/03/25 03:17:07;;;;;;;2.85;0.75;;;6.30;99.90;;;5.80;100.00;96925.97;5048151;28;20152;-74
2023/03/25 03:20:24;;;;;;;3.03;0.77;;;6.40;99.90;;;5.74;100.00;96915.88;5046455;28;20503;-74
2023/03/25 03:23:00;;;;;;;4.35;0.82;;;6.40;99.90;;;5.81;100.00;96901.06;5036846;28;20418;-74
2023/03/25 03:25:40;;;;;;;6.65;0.90;;;6.40;99.90;;;5.80;100.00;96920.00;5044775;28;20049;-74
2023/03/25 03:28:18;;;;;;;4.80;0.80;;;6.40;99.90;;;5.73;100.00;96901.34;5045009;28;20045;-74
2023/03/25 03:31:11;;;;;;;6.85;1.10;;;6.30;99.90;;;5.75;100.00;96893.56;5054918;28;20375;-74
2023/03/25 03:34:04;;;;;;;9.00;1.20;;;6.50;99.90;;;5.81;100.00;96917.34;5064105;28;20077;-74
2023/03/25 03:36:37;;;;;;;4.95;1.05;;;6.50;99.90;;;5.75;100.00;96896.97;5058727;28;20801;-74
2023/03/25 03:39:21;;;;;;;6.20;1.10;;;6.40;99.90;;;5.76;100.00;96926.13;5059964;28;20045;-74
2023/03/25 03:41:56;;;;;;;7.97;1.35;;;6.40;99.90;;;5.65;100.00;96898.16;5060142;28;20063;-74
2023/03/25 03:44:32;;;;;;;10.52;1.77;;;6.40;99.90;;;5.69;100.00;96902.31;5043341;28;20387;-74
2023/03/25 03:47:06;;;;;;;8.27;1.25;;;6.40;99.90;;;5.77;100.00;96927.81;5041646;28;20434;-74
2023/03/25 03:49:49;;;;;;;8.23;1.20;;;6.40;99.90;;;5.73;100.00;96916.78;5047274;28;20076;-74
2023/03/25 03:52:24;;;;;;;6.82;1.67;;;6.40;99.90;;;5.74;100.00;96935.66;5048858;28;20037;-74
2023/03/25 03:55:00;;;;;;;8.85;1.30;;;6.50;99.90;;;5.77;100.00;96932.94;5042855;28;20068;-73
2023/03/25 03:57:36;;;;;;;5.13;1.00;;;6.50;99.90;;;5.71;100.00;96922.88;5044682;28;20077;-73
2023/03/25 04:00:22;;;;;;;7.95;1.23;;;6.50;99.90;;;5.70;100.00;96924.59;5044751;28;20060;-74
2023/03/25 04:03:17;;;;;;;5.90;0.90;;;6.40;99.90;;;5.68;100.00;96926.41;5029780;28;20049;-73
2023/03/25 04:06:05;;;;;;;7.78;1.23;;;6.50;99.90;;;5.71;100.00;96928.03;5042402;28;20045;-74
2023/03/25 04:08:41;;;;;;;8.85;1.60;;;6.40;99.90;;;5.75;100.00;96938.19;5029401;28;20053;-74
2023/03/25 04:11:16;;;;;;;7.53;1.20;;;6.50;99.90;;;5.73;100.00;96949.44;5044715;28;20049;-73
2023/03/25 04:13:46;;;;;;;8.60;1.02;;;6.50;99.90;;;5.78;100.00;96929.50;5027492;28;20705;-74
2023/03/25 04:16:13;;;;;;;8.70;1.40;;;6.50;99.90;;;5.82;100.00;96964.56;5047437;28;20052;-73
2023/03/25 04:18:42;;;;;;;10.10;1.42;;;6.50;99.90;;;5.78;100.00;96984.41;5040487;28;20057;-73
2023/03/25 04:21:09;;;;;;;6.05;1.20;;;6.40;99.90;;;5.74;100.00;96969.94;5047269;28;20046;-73
2023/03/25 04:23:38;;;;;;;6.40;1.15;;;6.40;99.90;;;5.74;100.00;96967.38;5059200;28;20130;-73
2023/03/25 04:26:05;;;;;;;6.30;1.42;;;6.40;99.90;;;5.80;100.00;96974.06;5043869;28;20080;-73
2023/03/25 04:28:35;;;;;;;10.10;1.17;;;6.40;99.90;;;5.73;100.00;96957.16;5046906;28;20581;-73
2023/03/25 04:31:06;;;;;;;4.35;1.30;;;6.40;99.90;;;5.72;100.00;96971.72;5041562;28;20503;-73
2023/03/25 04:33:34;;;;;;;7.63;1.10;;;6.40;99.90;;;5.70;100.00;96949.50;5058056;28;20056;-73
2023/03/25 04:36:02;;;;;;;6.55;1.50;;;6.40;99.90;;;5.72;100.00;96953.72;5044596;28;20067;-73
2023/03/25 04:38:29;;;;;;;5.03;0.80;;;6.40;99.90;;;5.78;100.00;96957.84;5045679;28;20297;-73
2023/03/25 04:40:57;;;;;;;5.75;0.93;;;6.40;99.90;;;5.86;100.00;96971.28;5042509;28;20053;-73
2023/03/25 04:43:24;;;;;;;10.27;1.10;;;6.40;99.90;;;5.77;100.00;96971.59;5042256;28;20149;-73
2023/03/25 04:45:53;;;;;;;13.80;1.33;;;6.40;99.90;;;5.81;100.00;96978.31;5043482;28;20396;-73
2023/03/25 04:48:28;;;;;;;11.27;1.45;;;6.40;99.90;;;5.78;100.00;96970.72;5042744;28;20059;-73
2023/03/25 04:51:00;;;;;;;7.78;1.40;;;6.40;99.90;;;5.73;100.00;96957.16;5043274;28;20247;-74
2023/03/25 04:53:28;;;;;;;10.70;1.60;;;6.50;99.90;;;5.83;100.00;96979.13;5045296;28;20048;-74
2023/03/25 04:55:56;;;;;;;6.80;1.35;;;6.50;99.90;;;5.83;100.00;96968.81;5044824;28;20144;-74
2023/03/25 04:58:22;;;;;;;11.25;1.40;;;6.50;99.90;;;5.78;100.00;96978.44;5045466;28;20129;-74
2023/03/25 05:00:51;;;;;;;13.00;1.67;;;6.50;99.90;;;5.81;100.00;96966.28;5042529;28;20048;-73
2023/03/25 05:03:25;;;;;;;10.88;1.50;;;6.50;99.90;;;5.84;100.00;96965.34;5043913;28;20141;-74
2023/03/25 05:05:52;;;;;;;13.18;1.95;;;6.50;99.90;;;5.87;100.00;96966.09;5044076;28;20442;-73
2023/03/25 05:08:22;;;;;;;10.80;1.80;;;6.50;99.90;;;5.88;100.00;96977.22;5041513;28;20063;-74
2023/03/25 05:10:50;;;;;;;17.70;2.25;;;6.50;99.90;;;5.85;100.00;96949.00;5042841;28;20530;-76
2023/03/25 05:13:17;;;;;;;14.40;2.42;;;6.60;99.90;;;5.84;100.00;96944.75;5044259;28;20052;-74
2023/03/25 05:15:44;;;;;;;10.05;2.30;;;6.60;99.90;;;5.81;100.00;96944.84;5046104;28;20045;-74
2023/03/25 05:18:14;;;;;;;14.18;2.58;;;6.50;99.90;;;5.73;100.00;96958.00;5039773;28;20051;-73
2023/03/25 05:20:45;;;;;;;11.82;1.95;;;6.50;99.90;;;5.85;100.00;96960.13;5043152;28;20045;-74
2023/03/25 05:23:16;;;;;;;12.02;2.20;;;6.50;99.90;;;5.87;100.00;96960.94;5056711;28;20049;-73
2023/03/25 05:25:50;;;;;;;16.40;2.45;;;6.50;99.90;;;5.87;100.00;96950.63;5041043;28;20114;-74
2023/03/25 05:28:18;;;;;;;16.90;2.28;;;6.60;99.90;;;5.89;100.00;96970.34;5038048;28;20495;-73
2023/03/25 05:30:46;;;;;;;19.48;2.10;;;6.50;99.90;;;6.04;100.00;96975.00;5056992;28;20848;-74
2023/03/25 05:33:16;;;;;;;13.80;1.85;;;6.50;99.90;;;5.93;100.00;96983.09;5025108;28;20053;-74
2023/03/25 05:35:45;;;;;;;14.10;2.22;;;6.50;99.90;;;5.98;100.00;96973.50;5057881;28;20061;-74
2023/03/25 05:38:15;;;;;;;21.63;1.98;;;6.60;99.90;;;6.02;100.00;96989.66;5040337;28;20493;-74
2023/03/25 05:40:44;;;;;;;12.55;1.80;;;6.60;99.90;;;6.09;100.00;96988.59;5040760;28;20137;-74
2023/03/25 05:43:15;;;;;;;13.27;1.75;;;6.70;99.90;;;6.07;100.00;96992.94;5040471;28;20080;-74
2023/03/25 05:45:43;;;;;;;9.85;1.55;;;6.70;99.90;;;6.12;100.00;96983.31;5044803;28;20136;-74
2023/03/25 05:48:10;;;;;;;14.55;1.70;;;6.70;99.90;;;6.16;100.00;96972.03;5036400;28;20044;-74
2023/03/25 05:50:41;;;;;;;17.23;3.10;;;6.70;99.90;;;6.12;100.00;96993.63;5040884;28;20059;-74
2023/03/25 05:53:14;;;;;;;14.82;1.90;;;6.80;99.90;;;6.12;100.00;96974.75;5053939;28;20044;-74
2023/03/25 05:55:41;;;;;;;15.40;2.33;;;6.80;99.90;;;6.22;100.00;96978.69;5037237;28;20119;-75
2023/03/25 05:58:08;;;;;;;19.52;2.40;;;6.90;99.90;;;6.31;100.00;96998.97;5039919;28;20053;-74
2023/03/25 06:00:36;;;;;;;17.10;2.60;;;6.90;99.90;;;6.27;100.00;97003.41;5040942;28;20123;-74
2023/03/25 06:03:06;;;;;;;17.90;2.10;;;6.90;99.90;;;6.26;100.00;96980.25;5060207;28;20052;-74
2023/03/25 06:05:34;;;;;;;19.23;1.85;;;6.90;99.90;;;6.27;100.00;96975.06;5055434;28;20053;-74
2023/03/25 06:08:02;;;;;;;13.18;2.38;;;7.00;99.90;;;6.28;100.00;96991.38;5043683;28;20784;-73
2023/03/25 06:10:47;;;;;;;16.13;2.03;;;7.00;99.90;;;6.30;100.00;96983.59;5045293;28;20056;-74
2023/03/25 06:13:14;;;;;;;9.57;1.55;;;7.00;99.90;;;6.45;100.00;96978.72;5037969;28;20042;-74
2023/03/25 06:15:41;;;;;;;15.25;2.20;;;7.00;99.90;;;6.42;100.00;96989.13;5041652;28;20049;-74
2023/03/25 06:18:09;;;;;;;14.88;2.05;;;7.00;99.90;;;6.39;100.00;96963.47;5032399;28;20041;-74
2023/03/25 06:20:36;;;;;;;12.70;1.80;;;7.00;99.90;;;6.40;100.00;96982.34;5042126;28;20057;-74
2023/03/25 06:23:03;;;;;;;18.42;2.75;;;7.00;99.90;;;6.27;100.00;96962.19;5043054;28;20068;-74
2023/03/25 06:25:30;;;;;;;17.25;1.98;;;7.00;99.90;;;6.25;100.00;96987.16;5046472;28;20049;-74
2023/03/25 06:28:01;;;;;;;13.68;2.17;;;7.10;99.90;;;6.27;100.00;96980.22;5043612;28;20076;-74
2023/03/25 06:30:29;;;;;;;18.52;1.90;;;7.00;99.90;;;6.25;100.00;96966.53;5042959;28;20600;-74
2023/03/25 06:32:58;;;;;;;12.40;1.83;;;7.00;99.90;;;6.27;100.00;96969.91;5045717;28;20038;-74
2023/03/25 06:35:25;;;;;;;11.88;1.65;;;7.10;99.90;;;6.32;100.00;96976.63;5042898;28;20503;-73
2023/03/25 06:37:52;;;;;;;16.75;2.03;;;7.00;99.90;;;6.44;100.00;96983.94;5042744;28;20052;-73
2023/03/25 06:40:19;;;;;;;16.88;2.08;;;7.00;99.90;;;6.50;100.00;96981.16;5056696;28;20041;-74
2023/03/25 06:42:47;;;;;;;15.63;2.28;;;7.10;99.90;;;6.54;100.00;96969.81;5038817;28;20040;-74
2023/03/25 06:45:14;;;;;;;16.80;2.42;;;7.10;99.90;;;6.47;100.00;96952.88;5024730;28;20061;-74
2023/03/25 06:47:41;;;;;;;17.52;3.15;;;7.20;99.90;;;6.68;100.00;96965.00;5044722;28;20072;-74
2023/03/25 06:50:09;;;;;;;19.10;2.90;;;7.20;99.90;;;6.55;100.00;96968.94;5040210;28;20462;-74
2023/03/25 06:52:37;;;;;;;16.58;2.83;;;7.10;99.90;;;6.58;100.00;96945.59;5044602;28;20140;-73
2023/03/25 06:55:04;;;;;;;12.48;2.13;;;7.20;99.90;;;6.65;100.00;96956.53;5040918;28;20053;-74
2023/03/25 06:57:31;;;;;;;18.88;2.65;;;7.20;99.90;;;6.58;100.00;96943.00;5044094;28;20049;-74
2023/03/25 06:59:58;;;;;;;24.95;2.40;;;7.20;99.90;;;6.54;100.00;96953.50;5042743;28;20061;-74
2023/03/25 07:02:25;;;;;;;18.48;2.10;;;7.20;99.90;;;6.72;100.00;96954.56;5045529;28;20048;-74
2023/03/25 07:04:52;;;;;;;12.95;1.92;;;7.20;99.90;;;6.89;100.00;96945.31;5033743;28;20133;-74
2023/03/25 07:07:19;;;;;;;15.98;2.15;;;7.30;99.90;;;6.81;100.00;96952.47;5060987;28;20049;-74
2023/03/25 07:09:54;;;;;;;24.92;3.30;;;7.40;99.90;;;6.98;100.00;96930.34;5031910;28;20128;-74
2023/03/25 07:12:22;;;;;;;16.83;2.17;;;7.50;99.90;;;6.99;100.00;96919.97;5045019;28;20071;-74
2023/03/25 07:14:54;;;;;;;14.88;1.77;;;7.60;99.90;;;7.10;100.00;96906.66;5041966;28;20056;-74
2023/03/25 07:17:22;;;;;;;21.67;2.58;;;7.70;99.90;;;7.24;100.00;96932.75;5043711;28;20061;-74
2023/03/25 07:19:50;;;;;;;22.85;2.30;;;7.70;99.90;;;7.11;100.00;96904.00;5044409;28;20128;-74
2023/03/25 07:22:17;;;;;;;17.35;2.83;;;7.70;99.90;;;7.12;100.00;96910.84;5028375;28;20084;-74
2023/03/25 07:24:44;;;;;;;16.50;2.42;;;7.70;99.90;;;7.31;100.00;96897.22;5047323;28;20499;-74
2023/03/25 07:27:13;;;;;;;20.02;2.92;;;7.80;99.90;;;7.33;100.00;96914.31;5030623;28;20107;-74
2023/03/25 07:29:40;;;;;;;12.68;2.47;;;7.80;99.90;;;7.44;100.00;96913.06;5031476;28;20049;-75
2023/03/25 07:32:07;;;;;;;15.60;2.58;;;7.90;99.90;;;7.22;100.00;96911.31;5044760;28;20051;-75
2023/03/25 07:34:35;;;;;;;12.57;1.95;;;7.80;99.90;;;7.32;100.00;96919.53;5047093;28;20155;-74
2023/03/25 07:37:02;;;;;;;10.38;2.47;;;7.90;99.90;;;7.52;100.00;96931.66;5044520;28;20045;-74
2023/03/25 07:39:29;;;;;;;16.65;2.30;;;7.90;99.90;;;7.46;100.00;96917.25;5041799;28;20049;-74
2023/03/25 07:41:59;;;;;;;15.13;2.35;;;8.00;99.90;;;7.56;100.00;96919.47;5044563;28;20049;-74
2023/03/25 07:44:26;;;;;;;11.15;2.55;;;8.00;99.90;;;7.34;100.00;96904.81;5060861;28;20055;-74
2023/03/25 07:46:53;;;;;;;15.90;1.83;;;8.00;99.90;;;7.39;100.00;96931.31;5048279;28;20094;-74
2023/03/25 07:49:20;;;;;;;12.23;1.52;;;7.90;99.90;;;7.41;100.00;96936.41;5042241;28;20057;-74
2023/03/25 07:51:47;;;;;;;15.18;2.58;;;8.00;99.90;;;7.29;100.00;96928.25;5045569;28;20065;-74
2023/03/25 07:54:14;;;;;;;13.15;2.42;;;7.90;99.90;;;7.54;100.00;96920.34;5045083;28;20063;-74
2023/03/25 07:56:41;;;;;;;15.10;2.60;;;7.90;99.90;;;7.50;100.00;96939.47;5045571;28;20054;-74
2023/03/25 07:59:08;;;;;;;10.40;2.45;;;8.00;99.90;;;7.70;100.00;96928.31;5046516;28;20041;-74
2023/03/25 08:01:38;;;;;;;15.95;2.60;;;8.10;99.90;;;8.29;100.00;96939.59;5044117;28;20050;-74
2023/03/25 08:04:05;;;;;;;12.73;1.50;;;8.50;99.90;;;7.96;100.00;96865.22;5048362;28;20687;-74
2023/03/25 08:06:32;;;;;;;10.95;1.65;;;8.60;99.90;;;7.67;100.00;96901.78;5040078;28;20621;-74
2023/03/25 08:08:59;;;;;;;10.20;2.03;;;8.50;99.90;;;7.70;100.00;96909.41;5042066;28;20059;-74
2023/03/25 08:11:26;;;;;;;12.05;1.60;;;8.20;99.90;;;7.66;100.00;96897.50;5027687;28;20140;-74
2023/03/25 08:13:53;;;;;;;11.75;2.08;;;8.30;99.90;;;7.57;100.00;96883.22;5029554;28;20049;-74
2023/03/25 08:16:20;;;;;;;7.93;1.67;;;8.30;99.90;;;7.61;100.00;96900.28;5047258;28;20064;-74
2023/03/25 08:18:51;;;;;;;9.80;1.20;;;8.20;99.90;;;7.69;100.00;96893.06;5042307;28;20072;-74
2023/03/25 08:21:26;;;;;;;10.20;1.10;;;8.30;99.90;;;7.65;100.00;96906.16;5028373;28;20518;-74
2023/03/25 08:23:57;;;;;;;7.13;1.25;;;8.10;99.90;;;7.59;100.00;96896.09;5044159;28;20050;-74
2023/03/25 08:26:25;;;;;;;7.18;0.90;;;8.20;99.90;;;7.70;100.00;96924.88;5044050;28;20080;-74
2023/03/25 08:28:56;;;;;;;9.23;1.33;;;8.20;99.90;;;7.89;100.00;96915.47;5041123;28;20052;-74
2023/03/25 08:31:25;;;;;;;7.38;1.05;;;8.30;99.90;;;7.86;100.00;96914.75;5045673;28;20551;-73
2023/03/25 08:33:52;;;;;;;10.20;1.65;;;8.30;99.90;;;7.67;100.00;96928.44;5046581;28;20076;-73
2023/03/25 08:36:21;;;;;;;8.02;1.30;;;8.20;99.90;;;7.50;100.00;96907.63;5040816;28;20132;-73
2023/03/25 08:38:49;;;;;;;7.10;1.25;;;8.30;99.90;;;7.58;100.00;96908.16;5046102;28;20049;-73
2023/03/25 08:41:17;;;;;;;6.88;1.20;;;8.20;99.90;;;7.73;100.00;96897.19;5043143;28;20102;-73
2023/03/25 08:43:45;;;;;;;9.13;1.48;;;8.40;99.90;;;7.72;100.00;96962.66;5039243;28;20292;-73
2023/03/25 08:46:13;;;;;;;8.82;1.00;;;8.40;99.90;;;7.73;100.00;96930.78;5025329;28;20136;-73
2023/03/25 08:48:42;;;;;;;11.95;1.80;;;8.40;99.90;;;7.87;100.00;96937.13;5042807;28;20057;-73
2023/03/25 08:51:09;;;;;;;9.90;1.55;;;8.30;99.90;;;8.28;100.00;96914.66;5041449;28;20049;-73
2023/03/25 08:53:36;;;;;;;11.00;2.33;;;8.70;99.90;;;8.49;100.00;96901.72;5041907;28;20076;-73
2023/03/25 08:56:04;;;;;;;7.53;1.48;;;8.90;99.90;;;8.54;100.00;96920.44;5041768;28;20041;-73
2023/03/25 08:58:31;;;;;;;7.13;1.42;;;9.10;99.90;;;8.45;100.00;96890.66;5039745;28;20120;-74
2023/03/25 09:00:58;;;;;;;5.20;1.25;;;9.10;99.90;;;8.63;100.00;96877.81;5043120;28;20052;-73
2023/03/25 09:03:26;;;;;;;7.72;1.30;;;9.20;99.90;;;9.55;100.00;96881.16;5031367;28;20041;-73
2023/03/25 09:05:53;;;;;;;11.82;1.90;;;9.80;99.90;;;10.00;100.00;96897.91;5017066;28;20091;-73
2023/03/25 09:08:21;;;;;;;8.18;1.38;;;10.20;99.90;;;9.25;100.00;96880.91;5025910;28;20057;-73
2023/03/25 09:10:48;;;;;;;7.85;0.98;;;10.20;99.90;;;9.20;100.00;96876.78;5021995;28;20059;-73
2023/03/25 09:13:15;;;;;;;5.57;1.15;;;9.60;99.90;;;8.68;100.00;96865.50;5024221;28;20060;-72
2023/03/25 09:15:44;;;;;;;9.15;1.23;;;9.40;99.90;;;8.47;100.00;96903.53;5023212;28;20045;-73
2023/03/25 09:18:14;;;;;;;6.43;1.08;;;9.20;99.90;;;8.35;100.00;96886.78;5020696;28;20045;-73
2023/03/25 09:20:41;;;;;;;5.28;1.08;;;9.20;99.90;;;8.42;100.00;96900.31;5037010;28;20356;-73
2023/03/25 09:23:09;;;;;;;9.10;1.27;;;9.10;99.90;;;8.82;100.00;96886.38;5025389;28;20078;-73
2023/03/25 09:25:37;;;;;;;9.00;1.35;;;9.10;99.90;;;8.85;100.00;96898.34;5039249;28;20056;-73
2023/03/25 09:28:04;;;;;;;10.32;1.60;;;9.40;99.90;;;8.87;100.00;96893.94;5026130;28;20100;-73
2023/03/25 09:30:31;;;;;;;4.68;0.93;;;9.30;99.90;;;8.94;100.00;96898.75;5020195;28;20053;-73
2023/03/25 09:33:00;;;;;;;8.20;1.30;;;9.40;99.90;;;8.84;100.00;96915.63;5036752;28;20144;-74
2023/03/25 09:35:27;;;;;;;4.03;0.77;;;9.20;99.90;;;8.81;100.00;96897.66;5021626;28;20128;-73
2023/03/25 09:37:54;;;;;;;7.65;1.27;;;9.30;99.90;;;8.89;100.00;96872.22;5021124;28;20049;-73
2023/03/25 09:40:21;;;;;;;7.13;1.25;;;9.50;99.90;;;10.33;100.00;96864.25;5023312;28;20049;-74
2023/03/25 09:43:23;;;;;;;5.30;0.93;;;10.50;99.90;;;10.83;100.00;96881.44;5023848;28;20056;-74
2023/03/25 09:45:52;;;;;;;7.22;1.52;;;11.10;99.90;;;10.23;100.00;96860.41;5002154;28;20045;-73
2023/03/25 09:48:42;;;;;;;10.00;1.30;;;11.00;99.90;;;9.73;100.00;96864.69;5026264;28;20053;-73
2023/03/25 09:51:09;;;;;;;7.88;1.00;;;10.30;99.90;;;8.98;100.00;96894.25;5021032;28;20060;-74
2023/03/25 09:53:43;;;;;;;8.07;1.27;;;10.00;99.90;;;8.66;100.00;96882.81;5019566;28;20057;-74
2023/03/25 09:56:19;;;;;;;8.35;1.25;;;9.50;99.90;;;8.24;100.00;96905.34;5022853;28;20049;-73
2023/03/25 09:58:51;;;;;;;8.05;0.70;;;9.00;99.90;;;8.09;100.00;96903.44;5038179;28;20060;-73
2023/03/25 10:01:40;;;;;;;6.73;1.00;;;8.80;99.90;;;7.96;100.00;96928.97;5023109;28;20500;-73
2023/03/25 10:04:45;;;;;;;8.25;0.98;;;8.80;99.90;;;8.06;100.00;96948.34;5021803;28;20300;-72
2023/03/25 10:07:42;;;;;;;9.27;1.60;;;8.70;99.90;;;8.03;100.00;96926.94;5021184;28;20053;-73
2023/03/25 10:10:36;;;;;;;6.70;1.25;;;8.80;99.90;;;7.97;100.00;96934.06;5021174;28;20099;-73
2023/03/25 10:13:26;;;;;;;;;;;8.70;99.90;;;7.78;100.00;96974.50;5037792;28;20054;-73
2023/03/25 10:16:45;;;;;;;4.03;0.77;;;8.60;99.90;;;7.66;100.00;96983.59;5026555;28;19933;-73
2023/03/25 10:19:34;;;;;;;6.22;0.93;;;8.50;99.90;;;7.24;100.00;97006.78;5019877;28;20723;-72
2023/03/25 10:22:03;;;;;;;6.78;1.00;;;8.10;99.90;;;7.18;100.00;97018.16;5020950;28;20397;-72
2023/03/25 10:24:39;;;;;;;5.38;0.90;;;7.90;99.90;;;7.12;100.00;97033.91;5021274;28;20049;-72
2023/03/25 10:27:32;;;;;;;5.30;0.73;;;7.80;99.90;;;7.28;100.00;97001.44;5022351;28;20051;-72
2023/03/25 10:30:11;;;;;;;7.00;1.00;;;7.80;99.90;;;7.47;100.00;97019.63;5019434;28;20057;-72
2023/03/25 10:32:58;;;;;;;7.28;1.15;;;7.90;99.90;;;7.77;100.00;97021.91;5014324;28;20079;-72
2023/03/25 10:35:39;;;;;;;4.55;1.02;;;8.00;99.90;;;7.56;100.00;97028.75;5021537;28;20057;-72
2023/03/25 10:38:23;;;;;;;9.02;1.05;;;8.00;99.90;;;7.96;100.00;97020.25;5022044;28;20046;-72
2023/03/25 10:41:17;;;;;;;8.32;1.00;;;8.40;99.90;;;7.77;100.00;97046.91;5020074;28;20478;-73
2023/03/25 10:43:44;;;;;;;7.07;1.38;;;8.30;99.90;;;7.70;100.00;97031.63;5026372;28;20053;-73
2023/03/25 10:46:31;;;;;;;2.15;0.60;;;8.30;99.90;;;7.02;100.00;97077.25;5027201;28;20049;-71
2023/03/25 10:48:58;;;;;;;2.13;0.60;;;7.90;99.90;;;6.61;100.00;97058.09;5020697;28;20072;-72